Time;durP1;ratioP1;P1;durP2;ratioP2;P2;SDS_P1;SDS_P2;PMS_P1;PMS_P2;Temp;Humidity;BMP_temperature;BMP_pressure;BME280_temperature;BME280_humidity;BME280_pressure;Samples;Min_cycle;Max_cycle;Signal;HPM_P1;HPM_P2
2022/02/04 00:04:20;;;;;;;12.50;7.23;;;2.10;99.90;;;;;;5021100;28;20533;-58
2022/02/04 00:25:09;;;;;;;12.30;7.00;;;1.80;99.90;;;;;;5015249;28;20799;-56
2022/02/04 00:27:35;;;;;;;13.97;7.33;;;1.80;99.90;;;;;;5015581;28;20619;-59
2022/02/04 00:30:09;;;;;;;15.80;7.87;;;1.80;99.90;;;;;;5013370;28;20432;-58
2022/02/04 00:32:36;;;;;;;15.60;6.50;;;1.80;99.90;;;;;;5008319;28;20187;-59
2022/02/04 00:35:54;;;;;;;11.97;6.97;;;1.80;99.90;;;;;;5016037;28;20426;-57
2022/02/04 00:40:25;;;;;;;15.07;6.83;;;1.70;99.90;;;;;;5025504;28;20447;-58
2022/02/04 00:42:53;;;;;;;9.57;5.53;;;1.70;99.90;;;;;;5019249;28;20815;-58
2022/02/04 00:45:26;;;;;;;8.47;5.07;;;1.70;99.90;;;;;;5002385;28;20519;-58
2022/02/04 00:48:00;;;;;;;9.53;5.23;;;1.70;99.90;;;;;;5013162;28;20447;-60
2022/02/04 00:50:47;;;;;;;9.20;4.97;;;1.70;99.90;;;;;;5016735;28;20434;-59
2022/02/04 00:53:20;;;;;;;8.30;5.57;;;1.70;99.90;;;;;;5014238;28;20470;-59
2022/02/04 00:56:01;;;;;;;13.97;7.30;;;1.70;99.90;;;;;;5002501;28;20430;-59
2022/02/04 01:26:22;;;;;;;58.63;10.00;;;1.60;99.90;;;;;;5010000;28;21141;-60
2022/02/04 01:28:44;;;;;;;77.13;10.30;;;1.60;99.90;;;;;;5007613;28;20423;-64
2022/02/04 01:31:19;;;;;;;74.83;9.60;;;1.60;99.90;;;;;;5013579;28;20424;-59
2022/02/04 01:33:45;;;;;;;71.33;9.13;;;1.50;99.90;;;;;;5012272;28;20691;-58
2022/02/04 01:36:12;;;;;;;79.13;10.63;;;1.50;99.90;;;;;;5012574;28;20453;-59
2022/02/04 01:38:38;;;;;;;87.83;11.77;;;1.40;99.90;;;;;;5010403;28;20848;-59
2022/02/04 01:41:05;;;;;;;91.40;10.20;;;1.40;99.90;;;;;;5011729;28;20465;-61
2022/02/04 01:43:30;;;;;;;75.27;10.30;;;1.40;99.90;;;;;;5026626;28;20433;-61
2022/02/04 01:46:02;;;;;;;65.97;9.40;;;1.40;99.90;;;;;;5024863;28;20540;-61
2022/02/04 01:48:30;;;;;;;60.87;9.10;;;1.40;99.90;;;;;;5013865;28;20193;-60
2022/02/04 01:50:55;;;;;;;42.03;8.30;;;1.40;99.90;;;;;;5012051;28;20437;-60
2022/02/04 01:53:28;;;;;;;50.57;7.73;;;1.40;99.90;;;;;;5011716;28;20534;-60
2022/02/04 01:55:55;;;;;;;47.43;9.20;;;1.40;99.90;;;;;;5008285;28;20190;-59
2022/02/04 01:58:21;;;;;;;71.70;9.43;;;1.40;99.90;;;;;;5008563;28;20436;-57
2022/02/04 02:00:46;;;;;;;33.97;8.33;;;1.30;99.90;;;;;;5006628;28;20794;-62
2022/02/04 02:03:12;;;;;;;113.63;10.10;;;1.30;99.90;;;;;;5008099;28;20217;-59
2022/02/04 02:05:38;;;;;;;54.93;9.73;;;1.30;99.90;;;;;;5008538;28;20181;-59
2022/02/04 02:08:16;;;;;;;221.50;12.27;;;1.20;99.90;;;;;;5006231;28;20199;-63
2022/02/04 02:10:43;;;;;;;32.23;8.00;;;1.20;99.90;;;;;;5005892;28;21033;-57
2022/02/04 02:13:20;;;;;;;150.30;10.87;;;1.10;99.90;;;;;;5009544;28;20481;-63
2022/02/04 02:35:07;;;;;;;43.80;8.60;;;1.00;99.90;;;;;;5019640;28;20553;-66
2022/02/04 02:58:54;;;;;;;30.00;9.57;;;1.00;99.90;;;;;;5022628;28;20739;-60
2022/02/04 03:01:20;;;;;;;38.13;8.47;;;1.10;99.90;;;;;;5020784;28;20222;-59
2022/02/04 03:03:51;;;;;;;51.90;7.97;;;1.10;99.90;;;;;;5021977;28;20555;-62
2022/02/04 03:06:17;;;;;;;41.67;7.53;;;1.10;99.90;;;;;;5018080;28;20209;-60
2022/02/04 03:08:43;;;;;;;14.17;7.03;;;1.00;99.90;;;;;;5022538;28;20423;-64
2022/02/04 03:11:08;;;;;;;41.87;7.47;;;1.00;99.90;;;;;;5016843;28;20188;-61
2022/02/04 03:13:35;;;;;;;20.90;6.87;;;1.00;99.90;;;;;;5018147;28;20229;-60
2022/02/04 03:16:07;;;;;;;35.53;7.77;;;1.00;99.90;;;;;;5019696;28;20178;-60
2022/02/04 03:18:37;;;;;;;20.20;7.57;;;1.00;99.90;;;;;;5022412;28;20506;-59
2022/02/04 03:23:53;;;;;;;21.53;8.10;;;1.00;99.90;;;;;;5026018;28;20528;-58
2022/02/04 03:26:29;;;;;;;32.80;8.10;;;1.00;99.90;;;;;;5023156;28;20477;-57
2022/02/04 03:28:55;;;;;;;12.53;7.20;;;1.00;99.90;;;;;;5018328;28;20453;-57
2022/02/04 03:31:21;;;;;;;20.17;8.90;;;1.10;99.90;;;;;;5017958;28;20452;-59
2022/02/04 03:33:48;;;;;;;13.50;7.83;;;1.10;99.90;;;;;;5025853;28;20207;-60
2022/02/04 03:36:14;;;;;;;14.87;7.13;;;1.10;99.90;;;;;;5023189;28;20447;-59
2022/02/04 03:38:39;;;;;;;14.07;7.23;;;1.10;99.90;;;;;;5024442;28;20498;-59
2022/02/04 03:41:10;;;;;;;14.67;7.87;;;1.10;99.90;;;;;;5024096;28;20445;-56
2022/02/04 03:43:36;;;;;;;10.00;6.93;;;1.10;99.90;;;;;;5023740;28;20230;-60
2022/02/04 03:46:02;;;;;;;11.30;6.97;;;1.20;99.90;;;;;;5023553;28;20445;-59
2022/02/04 03:48:28;;;;;;;13.33;8.00;;;1.20;99.90;;;;;;5020740;28;20432;-58
2022/02/04 03:50:54;;;;;;;17.33;7.60;;;1.20;99.90;;;;;;5021482;28;20506;-61
2022/02/04 03:53:19;;;;;;;14.70;8.00;;;1.20;99.90;;;;;;5021630;28;20267;-56
2022/02/04 03:55:45;;;;;;;15.10;8.43;;;1.20;99.90;;;;;;5020114;28;20187;-58
2022/02/04 03:58:12;;;;;;;12.87;7.10;;;1.30;99.90;;;;;;5020815;28;20184;-65
2022/02/04 04:00:38;;;;;;;16.30;7.47;;;1.30;99.90;;;;;;5020017;28;20469;-59
2022/02/04 04:03:04;;;;;;;11.57;7.00;;;1.20;99.90;;;;;;5020383;28;20447;-58
2022/02/04 04:05:30;;;;;;;14.80;7.43;;;1.20;99.90;;;;;;5015059;28;20519;-58
2022/02/04 04:07:56;;;;;;;24.03;9.10;;;1.20;99.90;;;;;;5014457;28;20853;-57
2022/02/04 04:10:27;;;;;;;23.53;8.70;;;1.20;99.90;;;;;;5012603;28;20461;-57
2022/02/04 04:12:57;;;;;;;19.90;8.80;;;1.20;99.90;;;;;;5011160;28;20507;-58
2022/02/04 04:15:23;;;;;;;22.80;8.90;;;1.20;99.90;;;;;;5015082;28;20435;-59
2022/02/04 04:17:49;;;;;;;20.00;7.80;;;1.20;99.90;;;;;;5016870;28;20495;-57
2022/02/04 04:20:23;;;;;;;16.73;7.20;;;1.20;99.90;;;;;;5011139;28;21059;-56
2022/02/04 04:22:50;;;;;;;15.50;8.30;;;1.20;99.90;;;;;;5008520;28;21089;-58
2022/02/04 04:25:16;;;;;;;13.23;7.60;;;1.10;99.90;;;;;;5010598;28;20996;-60
2022/02/04 04:27:43;;;;;;;16.67;7.77;;;1.10;99.90;;;;;;5014019;28;20453;-58
2022/02/04 04:30:11;;;;;;;16.03;8.33;;;1.10;99.90;;;;;;5012266;28;20441;-57
2022/02/04 04:32:38;;;;;;;16.23;9.37;;;1.10;99.90;;;;;;5008196;28;20810;-59
2022/02/04 04:35:04;;;;;;;13.30;8.00;;;1.10;99.90;;;;;;5018399;28;20434;-63
2022/02/04 04:37:30;;;;;;;19.03;7.83;;;1.10;99.90;;;;;;5022185;28;20801;-60
2022/02/04 04:42:34;;;;;;;16.00;7.80;;;1.10;99.90;;;;;;5022726;28;20186;-58
2022/02/04 05:28:35;;;;;;;;;;;;;;;;;;;;;
2022/02/04 05:30:47;;;;;;;20.90;10.40;;;1.50;99.90;;;;;;5018548;28;20473;-62
2022/02/04 05:33:13;;;;;;;20.57;10.33;;;1.60;99.90;;;;;;5021393;28;20222;-62
2022/02/04 05:35:38;;;;;;;17.63;10.20;;;1.60;99.90;;;;;;5018143;28;20246;-61
2022/02/04 05:38:05;;;;;;;15.13;8.30;;;1.60;99.90;;;;;;5013286;28;20184;-59
2022/02/04 05:40:38;;;;;;;13.33;7.77;;;1.50;99.90;;;;;;5018233;28;20199;-61
2022/02/04 05:43:16;;;;;;;14.97;8.10;;;1.50;99.90;;;;;;5016806;28;20487;-62
2022/02/04 05:45:51;;;;;;;13.83;8.00;;;1.50;99.90;;;;;;5022944;28;20457;-61
2022/02/04 05:48:17;;;;;;;17.77;8.37;;;1.50;99.90;;;;;;5024246;28;20508;-63
2022/02/04 05:53:26;;;;;;;15.50;8.57;;;1.50;99.90;;;;;;5016122;28;20447;-60
2022/02/04 05:56:21;;;;;;;15.23;8.27;;;1.50;99.90;;;;;;5019328;28;20412;-60
2022/02/04 06:22:39;;;;;;;15.10;9.00;;;1.60;99.90;;;;;;5014121;28;20523;-65
2022/02/04 06:25:08;;;;;;;25.13;11.47;;;1.60;99.90;;;;;;5024507;28;20527;-65
2022/02/04 06:27:35;;;;;;;19.90;9.80;;;1.70;99.90;;;;;;5027181;28;20175;-66
2022/02/04 06:30:03;;;;;;;28.90;10.27;;;1.60;99.90;;;;;;5026999;28;20517;-61
2022/02/04 06:32:29;;;;;;;22.47;9.70;;;1.60;99.90;;;;;;5021908;28;20425;-68
2022/02/04 06:34:54;;;;;;;20.30;10.27;;;1.60;99.90;;;;;;5018740;28;20466;-60
2022/02/04 06:37:20;;;;;;;21.93;10.10;;;1.70;99.90;;;;;;5022940;28;20431;-60
2022/02/04 06:39:46;;;;;;;25.27;12.17;;;1.70;99.90;;;;;;5022292;28;20200;-68
2022/02/04 06:42:20;;;;;;;21.27;11.03;;;1.60;99.90;;;;;;5028420;28;20632;-62
2022/02/04 06:44:46;;;;;;;22.10;10.63;;;1.70;99.90;;;;;;5020543;28;20213;-64
2022/02/04 06:47:11;;;;;;;21.63;11.17;;;1.70;99.90;;;;;;5017375;28;20442;-59
2022/02/04 06:49:37;;;;;;;26.03;12.30;;;1.70;99.90;;;;;;5025116;28;20242;-65
2022/02/04 06:52:04;;;;;;;27.93;11.93;;;1.70;99.90;;;;;;5015552;28;20300;-61
2022/02/04 06:54:31;;;;;;;23.63;10.83;;;1.70;99.90;;;;;;5021778;28;20230;-59
2022/02/04 06:56:57;;;;;;;16.57;9.70;;;1.70;99.90;;;;;;5024692;28;20465;-58
2022/02/04 06:59:22;;;;;;;23.07;10.63;;;1.70;99.90;;;;;;5025476;28;20441;-58
2022/02/04 07:01:48;;;;;;;23.27;11.40;;;1.70;99.90;;;;;;5019228;28;20466;-62
2022/02/04 07:04:14;;;;;;;21.00;10.63;;;1.70;99.90;;;;;;5018624;28;20245;-58
2022/02/04 07:06:44;;;;;;;22.13;10.83;;;1.70;99.90;;;;;;5022547;28;20190;-58
2022/02/04 07:12:20;;;;;;;24.53;10.60;;;1.70;99.90;;;;;;4987817;28;20427;-58
2022/02/04 07:17:35;;;;;;;24.70;11.07;;;1.80;99.90;;;;;;5029378;28;20454;-66
2022/02/04 07:20:01;;;;;;;27.73;13.23;;;1.80;99.90;;;;;;5015834;28;20448;-57
2022/02/04 07:22:34;;;;;;;22.67;11.40;;;1.80;99.90;;;;;;5020535;28;20498;-58
2022/02/04 07:25:03;;;;;;;30.27;13.47;;;1.80;99.90;;;;;;5018459;28;20214;-57
2022/02/04 07:27:30;;;;;;;24.57;11.90;;;1.80;99.90;;;;;;5018920;28;20422;-58
2022/02/04 07:29:57;;;;;;;26.17;13.80;;;1.80;99.90;;;;;;5022926;28;20452;-57
2022/02/04 07:41:01;;;;;;;20.77;10.63;;;1.90;99.90;;;;;;5020747;28;20863;-57
2022/02/04 07:43:27;;;;;;;29.77;12.53;;;1.90;99.90;;;;;;5019424;28;20499;-57
2022/02/04 07:45:53;;;;;;;26.43;12.80;;;1.90;99.90;;;;;;5018496;28;20928;-57
2022/02/04 07:48:19;;;;;;;23.33;12.00;;;1.90;99.90;;;;;;5021677;28;20501;-59
2022/02/04 07:50:47;;;;;;;29.73;12.50;;;1.90;99.90;;;;;;5024276;28;20431;-57
2022/02/04 07:53:14;;;;;;;30.23;13.37;;;1.90;99.90;;;;;;5011863;28;20459;-59
2022/02/04 07:55:40;;;;;;;23.27;11.53;;;1.90;99.90;;;;;;5018837;28;20450;-57
2022/02/04 07:58:09;;;;;;;26.10;12.80;;;1.80;99.90;;;;;;5023674;28;20420;-60
2022/02/04 08:00:35;;;;;;;28.47;11.97;;;1.80;99.90;;;;;;5021503;28;20473;-55
2022/02/04 08:03:10;;;;;;;21.70;12.23;;;1.90;99.90;;;;;;5024429;28;20457;-57
2022/02/04 08:05:35;;;;;;;29.97;12.77;;;1.90;99.90;;;;;;5027497;28;20518;-66
2022/02/04 08:08:17;;;;;;;25.20;12.20;;;1.90;99.90;;;;;;5024684;28;20425;-58
2022/02/04 08:10:52;;;;;;;26.33;11.87;;;1.90;99.90;;;;;;5023775;28;20184;-57
2022/02/04 08:52:17;;;;;;;34.80;15.50;;;2.30;99.90;;;;;;5021291;28;20474;-58
2022/02/04 08:54:51;;;;;;;31.70;14.93;;;2.40;99.90;;;;;;5019548;28;20204;-56
2022/02/04 09:02:33;;;;;;;25.70;12.00;;;2.50;99.90;;;;;;5024645;28;20457;-57
2022/02/04 09:05:00;;;;;;;26.77;13.07;;;2.50;99.90;;;;;;5021765;28;20448;-58
2022/02/04 09:07:32;;;;;;;28.80;12.80;;;2.50;99.90;;;;;;5023133;28;20424;-60
2022/02/04 09:10:09;;;;;;;29.57;12.83;;;2.50;99.90;;;;;;5027713;28;20495;-63
2022/02/04 09:23:09;;;;;;;28.30;13.90;;;2.50;99.90;;;;;;5033759;28;20435;-58
2022/02/04 09:25:35;;;;;;;31.10;13.80;;;2.50;99.90;;;;;;5025139;28;20423;-59
2022/02/04 09:28:01;;;;;;;28.97;13.53;;;2.60;99.90;;;;;;5030010;28;20427;-62
2022/02/04 09:30:26;;;;;;;35.47;14.67;;;2.60;99.90;;;;;;5034187;28;20516;-60
2022/02/04 09:32:52;;;;;;;29.50;14.60;;;2.70;99.90;;;;;;5031673;28;20201;-58
2022/02/04 09:35:22;;;;;;;28.70;14.67;;;2.70;99.90;;;;;;5017800;28;20186;-59
2022/02/04 09:37:48;;;;;;;30.27;14.43;;;2.70;99.90;;;;;;5013946;28;20431;-58
2022/02/04 09:40:15;;;;;;;32.73;15.60;;;2.70;99.90;;;;;;5013884;28;20476;-57
2022/02/04 09:42:43;;;;;;;29.23;15.17;;;2.70;99.90;;;;;;5017693;28;20436;-58
2022/02/04 09:45:11;;;;;;;29.73;15.10;;;2.70;99.90;;;;;;5025761;28;20443;-59
2022/02/04 09:47:39;;;;;;;40.27;15.40;;;2.80;99.90;;;;;;5017925;28;20439;-57
2022/02/04 09:50:09;;;;;;;32.30;15.67;;;2.90;99.90;;;;;;5026668;28;20426;-59
2022/02/04 10:14:23;;;;;;;19.50;11.40;;;3.70;99.90;;;;;;5024741;28;20568;-59
2022/02/04 10:22:22;;;;;;;18.20;9.70;;;3.80;99.90;;;;;;5022031;28;20938;-56
2022/02/04 10:25:01;;;;;;;25.13;12.40;;;3.90;99.90;;;;;;5024426;28;21262;-59
2022/02/04 10:27:35;;;;;;;29.43;13.83;;;4.00;99.90;;;;;;5020627;28;20422;-58
2022/02/04 10:30:13;;;;;;;27.87;14.10;;;4.00;99.90;;;;;;5020918;28;20577;-57
2022/02/04 10:32:51;;;;;;;30.43;15.23;;;4.10;99.90;;;;;;5027034;28;20462;-54
2022/02/04 10:35:19;;;;;;;23.97;12.33;;;4.10;99.90;;;;;;5020237;28;20496;-56
2022/02/04 10:38:10;;;;;;;14.07;8.07;;;4.20;99.90;;;;;;5019187;28;20427;-58
2022/02/04 10:43:51;;;;;;;15.67;8.03;;;4.20;99.90;;;;;;5017157;28;20857;-56
2022/02/04 10:56:58;;;;;;;11.13;7.87;;;4.40;99.90;;;;;;5020461;28;20446;-56
2022/02/04 11:04:36;;;;;;;12.13;7.87;;;4.40;99.90;;;;;;5023342;28;20544;-57
2022/02/04 11:44:12;;;;;;;6.70;4.50;;;4.80;99.90;;;;;;5029412;28;20429;-61
2022/02/04 11:53:04;;;;;;;5.93;3.87;;;4.90;99.90;;;;;;5029063;28;20544;-62
2022/02/04 11:55:10;;;;;;;5.57;4.00;;;4.90;99.90;;;;;;5019495;28;20434;-61
2022/02/04 11:57:56;;;;;;;5.70;3.80;;;5.00;99.90;;;;;;5030939;28;20874;-64
2022/02/04 12:00:26;;;;;;;3.47;3.03;;;5.10;99.90;;;;;;5028836;28;20210;-62
2022/02/04 12:02:54;;;;;;;5.17;3.83;;;5.10;99.90;;;;;;5036420;28;20977;-60
2022/02/04 12:05:20;;;;;;;5.50;3.83;;;5.10;99.90;;;;;;5030903;28;20484;-62
2022/02/04 12:07:51;;;;;;;3.20;2.90;;;5.20;99.90;;;;;;5026480;28;20966;-63
2022/02/04 12:10:24;;;;;;;4.53;3.27;;;5.30;99.90;;;;;;5022391;28;20229;-63
2022/02/04 12:12:53;;;;;;;4.03;2.80;;;5.30;99.90;;;;;;5025737;28;20442;-64
2022/02/04 12:15:28;;;;;;;6.30;3.37;;;5.30;99.90;;;;;;5028387;28;21020;-64
2022/02/04 12:17:58;;;;;;;3.97;2.70;;;5.40;99.90;;;;;;5029300;28;20445;-64
2022/02/04 12:20:50;;;;;;;3.23;2.90;;;5.50;99.90;;;;;;5025209;28;20469;-64
2022/02/04 12:26:09;;;;;;;4.40;2.93;;;5.60;99.90;;;;;;5031296;28;20422;-67
2022/02/04 12:28:48;;;;;;;4.87;3.03;;;5.60;99.90;;;;;;5030271;28;20806;-68
2022/02/04 12:31:14;;;;;;;2.90;2.60;;;5.60;99.90;;;;;;5031018;28;20806;-68
2022/02/04 12:34:06;;;;;;;5.40;2.70;;;5.70;99.90;;;;;;5029909;28;20482;-62
2022/02/04 12:36:38;;;;;;;3.17;2.83;;;5.70;99.90;;;;;;5019371;28;20549;-62
2022/02/04 12:39:11;;;;;;;3.53;2.83;;;5.80;99.90;;;;;;5037231;28;20419;-63
2022/02/04 12:41:37;;;;;;;3.80;2.67;;;5.80;99.90;;;;;;5031693;28;20460;-63
2022/02/04 12:44:05;;;;;;;3.90;2.67;;;5.90;99.90;;;;;;5031187;28;20428;-62
2022/02/04 12:46:32;;;;;;;3.40;2.70;;;6.00;99.90;;;;;;5026124;28;20203;-65
2022/02/04 12:49:05;;;;;;;2.70;2.50;;;6.00;99.90;;;;;;5024515;28;20484;-64
2022/02/04 12:54:26;;;;;;;3.30;2.40;;;6.10;99.90;;;;;;5012426;28;20403;-64
2022/02/04 13:07:55;;;;;;;4.27;2.77;;;6.30;99.90;;;;;;5040620;28;20460;-64
2022/02/04 13:10:28;;;;;;;2.40;2.20;;;6.40;99.90;;;;;;5034784;28;20433;-64
2022/02/04 13:13:01;;;;;;;2.40;2.07;;;6.50;99.90;;;;;;5039054;28;20434;-64
2022/02/04 13:15:29;;;;;;;2.70;2.13;;;6.50;99.90;;;;;;5029275;28;20431;-64
2022/02/04 13:17:58;;;;;;;9.27;2.40;;;6.60;99.90;;;;;;5031259;28;20442;-64
2022/02/04 13:20:25;;;;;;;3.03;2.13;;;6.60;99.90;;;;;;5030153;28;20458;-64
2022/02/04 13:22:58;;;;;;;2.37;2.17;;;6.70;99.90;;;;;;5017047;28;20435;-63
2022/02/04 13:25:29;;;;;;;6.43;2.17;;;6.90;99.90;;;;;;5016475;28;20950;-64
2022/02/04 13:28:09;;;;;;;3.63;2.80;;;7.10;99.90;;;;;;5032959;28;20500;-63
2022/02/04 13:30:37;;;;;;;3.27;2.73;;;7.40;99.90;;;;;;5029532;28;20446;-63
2022/02/04 13:33:13;;;;;;;3.00;2.47;;;7.50;99.90;;;;;;5029143;28;20418;-61
2022/02/04 13:35:42;;;;;;;4.30;2.70;;;7.70;99.80;;;;;;5029609;28;21153;-64
2022/02/04 13:38:20;;;;;;;3.40;2.90;;;7.90;98.20;;;;;;5030062;28;20469;-64
2022/02/04 13:46:16;;;;;;;5.43;3.00;;;8.60;95.90;;;;;;5032060;28;20426;-63
2022/02/04 13:51:48;;;;;;;2.30;1.93;;;9.70;78.80;;;;;;5027646;28;20422;-62
2022/02/04 13:57:09;;;;;;;2.10;1.90;;;10.40;70.60;;;;;;5027858;28;20520;-64
2022/02/04 13:59:44;;;;;;;2.20;1.97;;;10.80;73.20;;;;;;5028269;28;20430;-65
2022/02/04 14:02:16;;;;;;;3.57;2.77;;;11.60;61.70;;;;;;5029178;28;20509;-65
2022/02/04 14:04:58;;;;;;;1.83;1.63;;;12.60;59.00;;;;;;5030577;28;20421;-65
2022/02/04 14:07:52;;;;;;;2.37;1.80;;;13.40;55.70;;;;;;5032656;28;20483;-63
2022/02/04 14:10:33;;;;;;;4.00;1.30;;;14.30;54.10;;;;;;5026729;28;20457;-65
2022/02/04 14:13:00;;;;;;;1.67;1.30;;;14.90;50.00;;;;;;5028620;28;20418;-61
2022/02/04 14:15:28;;;;;;;1.40;1.30;;;15.30;49.00;;;;;;5027354;28;20427;-64
2022/02/04 14:17:55;;;;;;;1.77;1.60;;;15.10;46.70;;;;;;5029058;28;20443;-62
2022/02/04 14:20:21;;;;;;;1.73;1.60;;;14.50;47.70;;;;;;5029836;28;20449;-63
2022/02/04 14:22:46;;;;;;;3.90;1.87;;;14.00;48.60;;;;;;5026959;28;20433;-63
2022/02/04 14:25:13;;;;;;;1.83;1.73;;;13.50;49.00;;;;;;5031739;28;20198;-63
2022/02/04 14:27:39;;;;;;;3.23;2.17;;;12.90;49.90;;;;;;5028770;28;20192;-62
2022/02/04 14:30:14;;;;;;;2.17;1.97;;;12.10;51.40;;;;;;5028125;28;21061;-63
2022/02/04 14:32:51;;;;;;;2.30;2.10;;;11.90;53.30;;;;;;5026011;28;20437;-63
2022/02/04 14:35:46;;;;;;;2.53;2.00;;;12.20;53.50;;;;;;5028605;28;20429;-63
2022/02/04 14:49:54;;;;;;;1.40;1.30;;;13.60;47.00;;;;;;5029124;28;20691;-63
2022/02/04 14:52:14;;;;;;;;;;;;;;;;;;;;;
2022/02/04 15:02:26;;;;;;;1.70;1.30;;;8.90;60.10;;;;;;5027717;28;20934;-63
2022/02/04 15:04:53;;;;;;;1.50;1.40;;;8.50;65.50;;;;;;5032184;28;20172;-62
2022/02/04 15:07:19;;;;;;;1.40;1.30;;;8.20;71.00;;;;;;5035044;28;20466;-63
2022/02/04 15:09:56;;;;;;;1.73;1.23;;;7.90;76.30;;;;;;5032195;28;20918;-63
2022/02/04 15:12:23;;;;;;;2.23;1.87;;;7.70;79.90;;;;;;5035867;28;20421;-63
2022/02/04 15:14:48;;;;;;;1.73;1.63;;;7.50;84.40;;;;;;5031975;28;20923;-64
2022/02/04 15:17:14;;;;;;;1.70;1.60;;;7.30;86.90;;;;;;5030568;28;20449;-62
2022/02/04 15:19:42;;;;;;;1.27;1.17;;;7.30;88.80;;;;;;5029794;28;20435;-63
2022/02/04 15:22:09;;;;;;;1.30;1.20;;;7.20;89.70;;;;;;5029510;28;20186;-64
2022/02/04 15:24:36;;;;;;;1.20;1.20;;;7.00;90.70;;;;;;5031044;28;20426;-63
2022/02/04 15:27:03;;;;;;;1.60;1.50;;;6.90;91.30;;;;;;5027983;28;20492;-62
2022/02/04 15:29:30;;;;;;;1.40;1.30;;;6.90;91.80;;;;;;5026145;28;20434;-61
2022/02/04 15:31:59;;;;;;;1.60;1.50;;;6.80;92.50;;;;;;5026759;28;20470;-64
2022/02/04 15:34:25;;;;;;;2.23;1.40;;;6.70;93.40;;;;;;5023749;28;20461;-62
2022/02/04 15:36:51;;;;;;;2.00;1.80;;;6.60;92.90;;;;;;5031977;28;20474;-62
2022/02/04 15:39:18;;;;;;;1.40;1.30;;;6.50;93.80;;;;;;5022121;28;20503;-62
2022/02/04 15:41:45;;;;;;;1.40;1.30;;;6.50;93.50;;;;;;5027921;28;20906;-62
2022/02/04 15:52:44;;;;;;;1.60;1.50;;;6.20;94.00;;;;;;5031918;28;20469;-62
2022/02/04 15:58:14;;;;;;;;;;;;;;;;;;;;;
2022/02/04 16:05:45;;;;;;;1.83;1.67;;;5.90;94.60;;;;;;5031996;28;21103;-62
2022/02/04 16:08:15;;;;;;;2.00;1.80;;;5.80;94.90;;;;;;5031413;28;20537;-62
2022/02/04 16:11:01;;;;;;;3.93;1.37;;;5.80;95.40;;;;;;5037423;28;20441;-61
2022/02/04 16:16:07;;;;;;;1.00;1.00;;;5.70;95.90;;;;;;5026581;28;20430;-57
2022/02/04 16:18:40;;;;;;;1.70;1.27;;;5.70;95.30;;;;;;5024657;28;21014;-61
2022/02/04 16:21:15;;;;;;;2.03;1.20;;;5.70;95.60;;;;;;5025751;28;20473;-60
2022/02/04 16:28:57;;;;;;;1.30;1.17;;;5.60;95.60;;;;;;5025575;28;20415;-61
2022/02/04 16:31:23;;;;;;;1.50;1.40;;;5.60;95.20;;;;;;5028748;28;20445;-61
2022/02/04 16:33:49;;;;;;;1.80;1.27;;;5.60;95.40;;;;;;5026829;28;21489;-61
2022/02/04 16:36:20;;;;;;;1.20;1.10;;;5.60;95.90;;;;;;5024225;28;20267;-61
2022/02/04 16:38:53;;;;;;;1.57;1.47;;;5.60;95.80;;;;;;5023317;28;20564;-62
2022/02/04 16:41:30;;;;;;;1.30;1.13;;;5.60;96.20;;;;;;5022481;28;20924;-61
2022/02/04 16:43:56;;;;;;;4.30;1.60;;;5.60;96.90;;;;;;5025608;28;20445;-61
2022/02/04 16:46:22;;;;;;;5.47;2.00;;;5.60;96.40;;;;;;5027815;28;20931;-63
2022/02/04 16:48:48;;;;;;;3.47;1.90;;;5.60;96.50;;;;;;5025177;28;20521;-61
2022/02/04 16:51:14;;;;;;;3.63;1.73;;;5.60;97.00;;;;;;5024445;28;20188;-61
2022/02/04 16:53:42;;;;;;;1.60;1.50;;;5.60;97.10;;;;;;5026943;28;20541;-61
2022/02/04 16:56:07;;;;;;;1.77;1.67;;;5.60;97.10;;;;;;5022936;28;20183;-62
2022/02/04 16:58:33;;;;;;;2.70;1.83;;;5.60;97.10;;;;;;5026604;28;20522;-61
2022/02/04 17:00:59;;;;;;;1.50;1.40;;;5.50;96.90;;;;;;5023313;28;20196;-60
2022/02/04 17:03:25;;;;;;;4.93;2.90;;;5.60;97.10;;;;;;5025258;28;20582;-61
2022/02/04 17:05:54;;;;;;;2.40;1.93;;;5.60;97.30;;;;;;5024237;28;20427;-62
2022/02/04 17:08:31;;;;;;;1.43;1.30;;;5.50;97.40;;;;;;5026708;28;20680;-61
2022/02/04 17:10:57;;;;;;;2.23;1.70;;;5.50;97.30;;;;;;5026949;28;20767;-61
2022/02/04 17:13:23;;;;;;;3.13;2.13;;;5.50;97.10;;;;;;5021974;28;20435;-60
2022/02/04 17:15:50;;;;;;;5.43;2.80;;;5.50;96.90;;;;;;5024803;28;20431;-60
2022/02/04 17:18:15;;;;;;;4.70;2.90;;;5.50;96.70;;;;;;5020641;28;20683;-56
2022/02/04 17:20:42;;;;;;;3.07;2.53;;;5.50;96.80;;;;;;5024221;28;20466;-58
2022/02/04 17:23:10;;;;;;;9.67;3.90;;;5.40;97.20;;;;;;5030045;28;20172;-58
2022/02/04 17:25:38;;;;;;;6.90;3.50;;;5.40;98.70;;;;;;5025630;28;20920;-57
2022/02/04 17:28:04;;;;;;;3.13;2.53;;;5.40;99.50;;;;;;5020107;28;20444;-60
2022/02/04 17:30:30;;;;;;;4.77;2.73;;;5.50;99.60;;;;;;5023549;28;20444;-62
2022/02/04 17:32:55;;;;;;;2.03;1.83;;;5.40;99.20;;;;;;5025170;28;20430;-61
2022/02/04 17:35:24;;;;;;;3.00;2.13;;;5.50;98.70;;;;;;5025019;28;20441;-60
2022/02/04 17:37:51;;;;;;;2.00;1.33;;;5.50;99.00;;;;;;5015782;28;20201;-61
2022/02/04 17:40:18;;;;;;;3.83;1.40;;;5.40;99.60;;;;;;5020056;28;20493;-61
2022/02/04 17:42:46;;;;;;;2.47;1.57;;;5.40;99.90;;;;;;5022829;28;20491;-61
2022/02/04 17:45:17;;;;;;;1.70;1.47;;;5.40;99.90;;;;;;5026808;28;20769;-59
2022/02/04 17:47:50;;;;;;;2.43;2.20;;;5.40;99.90;;;;;;5021838;28;20462;-58
2022/02/04 17:50:22;;;;;;;1.50;1.40;;;5.50;99.90;;;;;;5023499;28;20430;-59
2022/02/04 17:52:54;;;;;;;3.27;1.93;;;5.50;99.90;;;;;;5022605;28;20426;-60
2022/02/04 17:55:28;;;;;;;2.60;1.87;;;5.50;99.90;;;;;;5025839;28;20530;-57
2022/02/04 17:58:10;;;;;;;1.60;1.20;;;5.50;99.90;;;;;;5021100;28;20464;-61
2022/02/04 18:05:04;;;;;;;2.20;1.60;;;5.40;99.90;;;;;;4988599;28;20430;-60
2022/02/04 18:09:00;;;;;;;1.37;1.27;;;5.40;99.90;;;;;;5026396;28;20478;-59
2022/02/04 18:11:26;;;;;;;1.80;1.23;;;5.40;99.90;;;;;;5027718;28;20816;-60
2022/02/04 18:13:53;;;;;;;1.60;1.50;;;5.30;99.90;;;;;;5025797;28;20168;-61
2022/02/04 18:16:18;;;;;;;3.60;1.70;;;5.30;99.90;;;;;;5023099;28;20441;-59
2022/02/04 18:18:44;;;;;;;4.77;2.00;;;5.30;99.90;;;;;;5023452;28;20521;-59
2022/02/04 18:21:10;;;;;;;4.67;2.20;;;5.30;99.90;;;;;;5020747;28;20266;-60
2022/02/04 18:23:35;;;;;;;6.23;3.00;;;5.30;99.90;;;;;;5028017;28;20178;-61
2022/02/04 18:26:01;;;;;;;2.40;1.80;;;5.30;99.90;;;;;;5028957;28;20294;-60
2022/02/04 18:28:27;;;;;;;2.07;1.87;;;5.20;99.90;;;;;;5024191;28;20235;-60
2022/02/04 18:30:55;;;;;;;2.60;2.07;;;5.20;99.90;;;;;;5040731;28;20667;-60
2022/02/04 18:33:21;;;;;;;1.97;1.57;;;5.20;99.90;;;;;;5046320;28;20413;-60
2022/02/04 18:35:52;;;;;;;2.40;1.70;;;5.20;99.90;;;;;;5027480;28;20425;-60
2022/02/04 18:38:26;;;;;;;2.00;1.77;;;5.20;99.90;;;;;;5027158;28;20446;-60
2022/02/04 18:48:51;;;;;;;4.00;2.07;;;5.20;99.90;;;;;;5034151;28;20993;-60
2022/02/04 18:53:53;;;;;;;3.20;2.00;;;5.20;99.90;;;;;;5027924;28;20438;-60
2022/02/04 18:56:32;;;;;;;2.67;1.90;;;5.30;99.90;;;;;;5030267;28;20214;-60
2022/02/04 18:58:58;;;;;;;3.07;2.40;;;5.30;99.90;;;;;;5026228;28;20426;-60
2022/02/04 19:01:27;;;;;;;2.40;2.20;;;5.30;99.90;;;;;;5010577;28;21075;-61
2022/02/04 19:03:58;;;;;;;3.27;1.77;;;5.30;99.90;;;;;;5026281;28;20427;-60
2022/02/04 19:06:39;;;;;;;2.17;1.93;;;5.30;99.90;;;;;;5027650;28;20500;-60
2022/02/04 19:09:06;;;;;;;6.40;3.57;;;5.30;99.90;;;;;;5023677;28;20462;-60
2022/02/04 19:14:05;;;;;;;3.40;2.20;;;5.30;99.90;;;;;;5029193;28;20718;-62
2022/02/04 19:16:56;;;;;;;3.40;2.50;;;5.30;99.90;;;;;;5029990;28;20206;-60
2022/02/04 19:19:28;;;;;;;5.47;3.00;;;5.40;99.90;;;;;;5034328;28;20824;-60
2022/02/04 19:22:03;;;;;;;2.07;1.87;;;5.40;99.90;;;;;;5012440;28;20557;-60
2022/02/04 19:24:32;;;;;;;2.10;1.90;;;5.40;99.90;;;;;;5029031;28;20430;-60
2022/02/04 19:26:58;;;;;;;2.43;2.03;;;5.40;99.90;;;;;;5026534;28;20462;-60
2022/02/04 19:29:25;;;;;;;3.40;1.93;;;5.40;99.90;;;;;;5033669;28;20969;-61
2022/02/04 19:31:54;;;;;;;2.77;2.00;;;5.40;99.90;;;;;;5031780;28;20429;-59
2022/02/04 19:34:24;;;;;;;1.83;1.60;;;5.40;99.90;;;;;;5027714;28;20438;-60
2022/02/04 19:36:51;;;;;;;1.70;1.60;;;5.40;99.90;;;;;;5030321;28;20504;-61
2022/02/04 19:39:17;;;;;;;1.60;1.40;;;5.40;99.90;;;;;;5026749;28;20530;-60
2022/02/04 19:41:48;;;;;;;2.60;1.40;;;5.40;99.90;;;;;;5013521;28;20901;-60
2022/02/04 19:44:14;;;;;;;3.07;1.87;;;5.40;99.90;;;;;;5013399;28;20268;-60
2022/02/04 19:46:41;;;;;;;2.60;2.00;;;5.40;99.90;;;;;;5024249;28;20537;-61
2022/02/04 19:49:10;;;;;;;1.90;1.70;;;5.40;99.90;;;;;;5028563;28;20183;-60
2022/02/04 19:51:46;;;;;;;4.23;2.53;;;5.40;99.90;;;;;;5028500;28;20446;-60
2022/02/04 20:26:43;;;;;;;2.20;2.00;;;5.40;99.90;;;;;;5031974;28;20485;-60
2022/02/04 20:29:09;;;;;;;2.50;1.90;;;5.40;99.90;;;;;;5047045;28;20454;-61
2022/02/04 20:31:34;;;;;;;3.20;2.37;;;5.40;99.90;;;;;;5019977;28;20183;-61
2022/02/04 20:34:00;;;;;;;5.10;3.43;;;5.40;99.90;;;;;;5025676;28;20198;-61